createdAt,value
2017-12-26T00:00:01.569Z,22.73
2017-12-26T00:02:29.955Z,17.00
2017-12-26T00:04:58.634Z,32.57
2017-12-26T00:07:27.779Z,18.60
2017-12-26T00:09:56.166Z,22.30
2017-12-26T00:12:24.585Z,35.33
2017-12-26T00:14:53.738Z,16.60
2017-12-26T00:17:22.533Z,20.23
2017-12-26T00:19:51.840Z,21.17
2017-12-26T00:22:20.389Z,19.20
2017-12-26T00:24:48.792Z,34.73
2017-12-26T00:27:17.608Z,22.83
2017-12-26T00:29:46.076Z,23.80
2017-12-26T00:32:14.468Z,26.53
2017-12-26T00:34:43.772Z,21.87
2017-12-26T00:37:12.925Z,31.47
2017-12-26T00:39:41.332Z,32.27
2017-12-26T00:42:09.803Z,19.80
2017-12-26T00:44:38.183Z,24.17
2017-12-26T00:47:06.560Z,32.23
2017-12-26T00:49:35.169Z,28.50
2017-12-26T00:52:04.323Z,29.33
2017-12-26T00:54:32.832Z,24.60
2017-12-26T00:57:01.444Z,33.67
2017-12-26T00:59:30.605Z,36.10
2017-12-26T01:01:59.016Z,26.97
2017-12-26T01:04:28.604Z,33.70
2017-12-26T01:06:57.801Z,30.63
2017-12-26T01:09:26.212Z,43.53
2017-12-26T01:11:54.874Z,28.33
2017-12-26T01:14:24.070Z,38.00
2017-12-26T01:16:53.218Z,38.53
2017-12-26T01:19:22.258Z,35.93
2017-12-26T01:21:50.626Z,36.47
2017-12-26T01:24:19.009Z,41.70
2017-12-26T01:26:47.598Z,45.53
2017-12-26T01:29:15.993Z,40.73
2017-12-26T01:31:45.176Z,43.97
2017-12-26T01:34:13.642Z,33.87
2017-12-26T01:36:42.060Z,46.50
2017-12-26T01:39:10.443Z,38.40
2017-12-26T01:41:39.091Z,54.63
2017-12-26T01:44:07.668Z,22.00
2017-12-26T01:46:36.083Z,60.37
2017-12-26T01:49:04.512Z,52.63
2017-12-26T01:51:32.905Z,44.97
2017-12-26T01:54:01.539Z,53.90
2017-12-26T01:56:29.997Z,47.70
2017-12-26T01:58:59.163Z,44.57
2017-12-26T02:01:27.564Z,50.13
2017-12-26T02:03:57.081Z,43.13
2017-12-26T02:06:26.400Z,51.23
2017-12-26T02:08:54.860Z,44.83
2017-12-26T02:11:24.070Z,46.53
2017-12-26T02:13:52.494Z,50.53
2017-12-26T02:16:20.892Z,35.80
2017-12-26T02:18:49.482Z,30.47
2017-12-26T02:21:18.302Z,49.43
2017-12-26T02:23:47.456Z,38.07
2017-12-26T02:26:15.990Z,38.73
2017-12-26T02:28:44.388Z,53.90
2017-12-26T02:31:12.784Z,50.70
2017-12-26T02:33:41.581Z,48.20
2017-12-26T02:36:09.958Z,36.07
2017-12-26T02:38:38.343Z,55.73
2017-12-26T02:41:06.907Z,45.63
2017-12-26T02:43:35.279Z,41.37
2017-12-26T02:46:03.679Z,55.10
2017-12-26T02:48:32.282Z,43.17
2017-12-26T02:51:00.669Z,40.93
2017-12-26T02:53:29.817Z,40.50
2017-12-26T02:55:58.542Z,43.10
2017-12-26T02:58:27.206Z,52.10
2017-12-26T03:00:55.588Z,62.53
2017-12-26T03:03:24.892Z,38.37
2017-12-26T03:05:53.290Z,45.00
2017-12-26T03:08:21.727Z,71.73
2017-12-26T03:10:50.347Z,51.40
2017-12-26T03:13:18.743Z,37.13
2017-12-26T03:15:47.906Z,76.43
2017-12-26T03:18:16.618Z,38.80
2017-12-26T03:20:44.989Z,31.67
2017-12-26T03:23:13.750Z,63.40
2017-12-26T03:25:42.241Z,53.80
2017-12-26T03:28:11.326Z,31.90
2017-12-26T03:30:39.710Z,35.47
2017-12-26T03:33:08.917Z,78.50
2017-12-26T03:35:37.335Z,49.50
2017-12-26T03:38:06.498Z,48.83
2017-12-26T03:40:35.016Z,47.00
2017-12-26T03:43:04.200Z,61.80
2017-12-26T03:45:33.362Z,46.73
2017-12-26T03:48:02.415Z,28.97
2017-12-26T03:50:30.809Z,27.43
2017-12-26T03:52:59.198Z,46.70
2017-12-26T03:55:27.614Z,53.47
2017-12-26T03:57:56.014Z,26.97
2017-12-26T04:00:25.210Z,38.50
2017-12-26T04:02:54.720Z,34.30
2017-12-26T04:05:23.900Z,65.10
2017-12-26T04:07:52.308Z,51.67
2017-12-26T04:10:20.787Z,60.23
2017-12-26T04:12:49.212Z,43.37
2017-12-26T04:15:18.379Z,48.87
2017-12-26T04:17:47.017Z,37.33
2017-12-26T04:20:16.200Z,44.13
2017-12-26T04:22:44.590Z,42.63
2017-12-26T04:25:13.473Z,47.30
2017-12-26T04:27:41.901Z,29.50
2017-12-26T04:30:10.288Z,42.53
2017-12-26T04:32:38.732Z,51.23
2017-12-26T04:35:07.903Z,29.83
2017-12-26T04:37:36.599Z,37.87
2017-12-26T04:40:05.132Z,29.60
2017-12-26T04:42:33.528Z,31.07
2017-12-26T04:45:01.925Z,42.37
2017-12-26T04:47:30.494Z,33.63
2017-12-26T04:49:58.888Z,25.67
2017-12-26T04:52:28.049Z,51.47
2017-12-26T04:54:56.505Z,52.40
2017-12-26T04:57:25.676Z,27.80
2017-12-26T04:59:54.078Z,34.97
2017-12-26T05:02:23.384Z,37.33
2017-12-26T05:04:52.532Z,52.07
2017-12-26T05:07:20.926Z,54.40
2017-12-26T05:09:49.370Z,40.37
2017-12-26T05:12:17.756Z,26.27
2017-12-26T05:14:46.182Z,33.07
2017-12-26T05:17:14.770Z,39.50
2017-12-26T05:19:43.914Z,39.53
2017-12-26T05:22:12.297Z,22.33
2017-12-26T05:24:40.797Z,48.33
2017-12-26T05:27:09.687Z,38.80
2017-12-26T05:29:38.072Z,43.40
2017-12-26T05:32:06.655Z,27.93
2017-12-26T05:34:35.062Z,30.37
2017-12-26T05:37:04.263Z,23.30
2017-12-26T05:39:33.563Z,52.63
2017-12-26T05:42:02.740Z,38.30
2017-12-26T05:44:31.124Z,49.53
2017-12-26T05:46:59.583Z,34.13
2017-12-26T05:49:27.967Z,32.90
2017-12-26T05:51:56.653Z,28.33
2017-12-26T05:54:25.096Z,29.17
2017-12-26T05:56:53.480Z,33.30
2017-12-26T05:59:21.868Z,18.60
2017-12-26T06:01:50.444Z,38.03
2017-12-26T06:04:18.842Z,35.77
2017-12-26T06:06:47.992Z,25.67
2017-12-26T06:09:16.525Z,46.43
2017-12-26T06:11:44.966Z,29.03
2017-12-26T06:14:13.367Z,49.80
2017-12-26T06:16:41.930Z,30.23
2017-12-26T06:19:10.350Z,28.00
2017-12-26T06:21:38.743Z,35.30
2017-12-26T06:24:08.889Z,38.97
2017-12-26T06:26:38.047Z,28.67
2017-12-26T06:29:06.880Z,43.23
2017-12-26T06:31:35.552Z,17.60
2017-12-26T06:34:04.714Z,22.97
2017-12-26T06:36:33.906Z,27.63
2017-12-26T06:39:02.457Z,24.17
2017-12-26T06:41:31.088Z,17.17
2017-12-26T06:43:59.474Z,17.27
2017-12-26T06:46:28.174Z,40.23
2017-12-26T06:48:57.337Z,26.33
2017-12-26T06:51:25.724Z,37.87
2017-12-26T06:53:55.157Z,18.30
2017-12-26T06:56:24.327Z,35.93
2017-12-26T06:58:52.747Z,26.00
2017-12-26T07:01:22.051Z,36.97
2017-12-26T07:03:50.435Z,26.97
2017-12-26T07:06:19.071Z,21.70
2017-12-26T07:08:47.682Z,26.80
2017-12-26T07:11:16.831Z,40.93
2017-12-26T07:13:45.292Z,35.77
2017-12-26T07:16:13.716Z,27.97
2017-12-26T07:18:42.128Z,39.83
2017-12-26T07:21:17.121Z,28.10
2017-12-26T07:23:45.515Z,34.00
2017-12-26T07:26:13.937Z,32.67
2017-12-26T07:28:42.543Z,22.90
2017-12-26T07:31:11.176Z,18.60
2017-12-26T07:33:40.342Z,28.40
2017-12-26T07:36:08.866Z,25.47
2017-12-26T07:38:38.010Z,27.37
2017-12-26T07:41:06.441Z,23.87
2017-12-26T07:43:35.826Z,21.70
2017-12-26T07:46:04.237Z,21.63
2017-12-26T07:48:32.624Z,22.53
2017-12-26T07:51:01.181Z,26.87
2017-12-26T07:53:30.624Z,21.77
2017-12-26T07:55:58.999Z,30.37
2017-12-26T07:58:27.476Z,27.47
2017-12-26T08:00:55.867Z,23.10
2017-12-26T08:03:24.240Z,17.93
2017-12-26T08:05:52.693Z,30.73
2017-12-26T08:08:21.875Z,20.47
2017-12-26T08:10:51.034Z,19.03
2017-12-26T08:13:19.472Z,37.03
2017-12-26T08:15:47.882Z,18.77
2017-12-26T08:18:16.609Z,20.97
2017-12-26T08:20:45.046Z,26.70
2017-12-26T08:23:13.461Z,20.90
2017-12-26T08:25:41.867Z,23.93
2017-12-26T08:28:11.073Z,14.60
2017-12-26T08:30:39.503Z,13.70
2017-12-26T08:33:08.263Z,13.97
2017-12-26T08:35:36.814Z,20.43
2017-12-26T08:38:05.959Z,19.77
2017-12-26T08:40:34.333Z,21.00
2017-12-26T08:43:03.152Z,21.00
2017-12-26T08:45:32.332Z,19.40
2017-12-26T08:48:01.489Z,16.03
2017-12-26T08:50:29.939Z,14.33
2017-12-26T08:52:59.123Z,11.43
2017-12-26T08:55:27.523Z,17.90
2017-12-26T08:57:56.850Z,19.50
2017-12-26T09:00:25.228Z,13.73
2017-12-26T09:02:54.383Z,13.33
2017-12-26T09:05:23.114Z,27.10
2017-12-26T09:07:51.560Z,13.00
2017-12-26T09:10:21.551Z,19.17
2017-12-26T09:12:50.153Z,12.83
2017-12-26T09:15:19.353Z,17.60
2017-12-26T09:17:47.730Z,12.53
2017-12-26T09:20:16.189Z,19.63
2017-12-26T09:22:44.664Z,18.40
2017-12-26T09:25:13.103Z,18.57
2017-12-26T09:27:41.574Z,20.53
2017-12-26T09:30:09.984Z,17.73
2017-12-26T09:32:38.602Z,17.43
2017-12-26T09:35:07.462Z,25.20
2017-12-26T09:37:35.843Z,22.70
2017-12-26T09:40:04.310Z,11.63
2017-12-26T09:42:32.786Z,19.17
2017-12-26T09:45:02.059Z,22.23
2017-12-26T09:47:31.218Z,23.23
2017-12-26T09:50:00.043Z,18.37
2017-12-26T09:52:29.219Z,21.13
2017-12-26T09:54:57.707Z,19.13
2017-12-26T09:57:26.333Z,6.47
2017-12-26T09:59:54.727Z,19.23
2017-12-26T10:02:23.105Z,13.63
2017-12-26T10:04:52.308Z,29.30
2017-12-26T10:07:20.700Z,10.20
2017-12-26T10:09:49.132Z,15.87
2017-12-26T10:12:18.408Z,21.67
2017-12-26T10:14:46.794Z,16.83
2017-12-26T10:17:15.948Z,14.13
2017-12-26T10:19:44.559Z,10.40
2017-12-26T10:22:13.116Z,15.37
2017-12-26T10:24:41.541Z,12.10
2017-12-26T10:27:10.820Z,12.50
2017-12-26T10:29:39.194Z,8.43
2017-12-26T10:32:07.562Z,7.67
2017-12-26T10:34:36.189Z,12.63
2017-12-26T10:37:05.456Z,18.73
2017-12-26T10:39:33.867Z,17.13
2017-12-26T10:42:03.458Z,5.70
2017-12-26T10:44:32.620Z,13.70
2017-12-26T10:47:01.053Z,8.97
2017-12-26T10:49:29.532Z,19.07
2017-12-26T10:51:58.677Z,16.57
2017-12-26T10:54:27.084Z,19.50
2017-12-26T10:56:55.592Z,4.40
2017-12-26T10:59:24.786Z,6.80
2017-12-26T11:01:54.068Z,11.77
2017-12-26T11:04:22.866Z,5.07
2017-12-26T11:06:52.093Z,5.47
2017-12-26T11:09:20.476Z,3.67
2017-12-26T11:11:49.247Z,3.50
2017-12-26T11:14:18.383Z,3.20
2017-12-26T11:16:47.536Z,1.50
2017-12-26T11:19:17.072Z,1.30
2017-12-26T11:21:45.538Z,1.07
2017-12-26T11:24:13.955Z,1.33
2017-12-26T11:26:42.562Z,2.60
2017-12-26T11:29:10.991Z,1.07
2017-12-26T11:31:39.379Z,1.83
2017-12-26T11:34:07.932Z,1.00
2017-12-26T11:36:37.157Z,0.93
2017-12-26T11:39:06.663Z,1.20
2017-12-26T11:41:35.231Z,1.20
2017-12-26T11:44:03.619Z,2.90
2017-12-26T11:46:31.992Z,2.30
2017-12-26T11:49:00.429Z,2.47
2017-12-26T11:51:28.814Z,0.83
2017-12-26T11:53:57.200Z,1.67
2017-12-26T11:56:26.427Z,0.90
2017-12-26T11:58:54.836Z,2.23
2017-12-26T12:01:23.376Z,0.90
2017-12-26T12:03:51.943Z,1.37
2017-12-26T12:06:20.319Z,3.17
2017-12-26T12:08:49.465Z,2.23
2017-12-26T12:11:18.223Z,0.97
2017-12-26T12:13:46.673Z,2.60
2017-12-26T12:16:15.074Z,1.97
2017-12-26T12:18:44.446Z,2.83
2017-12-26T12:21:12.849Z,0.97
2017-12-26T12:23:41.992Z,1.50
2017-12-26T12:26:10.594Z,0.40
2017-12-26T12:28:39.005Z,1.70
2017-12-26T12:31:08.189Z,3.97
2017-12-26T12:33:36.688Z,1.50
2017-12-26T12:36:05.850Z,1.77
2017-12-26T12:38:34.322Z,1.10
2017-12-26T12:41:02.857Z,1.87
2017-12-26T12:43:32.035Z,0.60
2017-12-26T12:46:00.435Z,0.57
2017-12-26T12:48:29.774Z,1.40
2017-12-26T12:50:58.210Z,1.60
2017-12-26T12:53:27.379Z,1.40
2017-12-26T12:55:55.917Z,0.80
2017-12-26T12:58:24.360Z,1.37
2017-12-26T13:00:53.516Z,2.27
2017-12-26T13:03:22.610Z,0.70
2017-12-26T13:05:50.988Z,2.10
2017-12-26T13:08:19.481Z,2.73
2017-12-26T13:10:47.907Z,0.70
2017-12-26T13:13:16.305Z,2.10
2017-12-26T13:15:45.057Z,0.70
2017-12-26T13:18:14.356Z,0.70
2017-12-26T13:20:42.755Z,1.03
2017-12-26T13:23:11.912Z,0.90
2017-12-26T13:25:40.410Z,2.53
2017-12-26T13:28:08.890Z,0.70
2017-12-26T13:30:37.266Z,0.60
2017-12-26T13:33:06.799Z,2.60
2017-12-26T13:35:35.916Z,1.00
2017-12-26T13:38:04.328Z,2.47
2017-12-26T13:40:32.823Z,0.90
2017-12-26T13:43:01.446Z,0.80
2017-12-26T13:45:29.836Z,2.93
2017-12-26T13:47:58.294Z,1.30
2017-12-26T13:50:27.466Z,1.00
2017-12-26T13:52:56.647Z,1.70
2017-12-26T13:55:25.251Z,2.23
2017-12-26T13:57:53.634Z,3.10
2017-12-26T14:00:22.036Z,2.30
2017-12-26T14:02:50.553Z,1.33
2017-12-26T14:05:19.759Z,1.67
2017-12-26T14:07:48.161Z,0.60
2017-12-26T14:10:16.681Z,0.40
2017-12-26T14:12:45.057Z,1.27
2017-12-26T14:15:14.034Z,1.60
2017-12-26T14:17:43.266Z,1.40
2017-12-26T14:20:11.643Z,3.60
2017-12-26T14:22:40.046Z,2.47
2017-12-26T14:25:08.548Z,4.40
2017-12-26T14:27:36.965Z,0.83
2017-12-26T14:30:05.802Z,1.43
2017-12-26T14:32:34.418Z,1.43
2017-12-26T14:35:02.844Z,2.57
2017-12-26T14:37:31.285Z,1.30
2017-12-26T14:40:00.667Z,5.70
2017-12-26T14:42:29.100Z,2.50
2017-12-26T14:44:57.631Z,5.77
2017-12-26T14:47:26.102Z,1.33
2017-12-26T14:49:54.497Z,0.90
2017-12-26T14:52:22.877Z,2.03
2017-12-26T14:54:51.520Z,2.40
2017-12-26T14:57:19.954Z,1.80
2017-12-26T14:59:49.118Z,1.43
2017-12-26T15:02:17.640Z,2.60
2017-12-26T15:04:46.784Z,0.60
2017-12-26T15:07:15.185Z,2.80
2017-12-26T15:09:43.674Z,1.90
2017-12-26T15:12:12.056Z,2.43
2017-12-26T15:14:40.455Z,0.60
2017-12-26T15:17:09.988Z,2.17
2017-12-26T15:19:38.518Z,2.60
2017-12-26T15:22:06.919Z,1.40
2017-12-26T15:24:36.551Z,2.80
2017-12-26T15:27:04.968Z,2.87
2017-12-26T15:29:33.339Z,1.97
2017-12-26T15:32:02.147Z,2.37
2017-12-26T15:34:30.520Z,2.80
2017-12-26T15:36:58.890Z,1.77
2017-12-26T15:39:27.456Z,1.60
2017-12-26T15:41:55.845Z,1.90
2017-12-26T15:44:24.359Z,2.77
2017-12-26T15:46:54.182Z,1.37
2017-12-26T15:49:22.608Z,3.63
2017-12-26T15:51:50.982Z,4.83
2017-12-26T15:54:19.512Z,1.87
2017-12-26T15:56:48.679Z,0.80
2017-12-26T15:59:17.069Z,1.33
2017-12-26T16:01:45.501Z,1.10
2017-12-26T16:04:13.915Z,1.63
2017-12-26T16:06:42.340Z,1.53
2017-12-26T16:09:12.046Z,0.87
2017-12-26T16:11:41.205Z,1.43
2017-12-26T16:14:09.929Z,1.67
2017-12-26T16:16:39.181Z,3.13
2017-12-26T16:19:07.571Z,1.50
2017-12-26T16:21:36.023Z,1.20
2017-12-26T16:24:04.566Z,3.77
2017-12-26T16:26:33.739Z,3.17
2017-12-26T16:29:02.151Z,1.40
2017-12-26T16:31:31.366Z,4.00
2017-12-26T16:33:59.848Z,5.20
2017-12-26T16:36:28.293Z,6.63
2017-12-26T16:38:56.910Z,0.90
2017-12-26T16:41:25.293Z,1.70
2017-12-26T16:43:53.700Z,1.97
2017-12-26T16:46:22.155Z,1.80
2017-12-26T16:48:50.678Z,2.87
2017-12-26T16:51:19.113Z,5.40
2017-12-26T16:53:47.642Z,2.77
2017-12-26T16:56:16.048Z,1.00
2017-12-26T16:58:45.251Z,3.13
2017-12-26T17:01:14.757Z,1.17
2017-12-26T17:03:43.950Z,3.13
2017-12-26T17:06:13.093Z,1.27
2017-12-26T17:08:41.599Z,2.53
2017-12-26T17:11:09.997Z,4.03
2017-12-26T17:13:38.390Z,4.67
2017-12-26T17:16:07.600Z,0.90
2017-12-26T17:18:36.768Z,2.87
2017-12-26T17:21:05.187Z,1.47
2017-12-26T17:23:34.129Z,4.00
2017-12-26T17:26:02.505Z,1.70
2017-12-26T17:28:30.919Z,1.70
2017-12-26T17:31:00.414Z,2.60
2017-12-26T17:33:29.588Z,3.27
2017-12-26T17:35:57.990Z,1.37
2017-12-26T17:38:27.293Z,2.07
2017-12-26T17:40:56.467Z,6.17
2017-12-26T17:43:24.870Z,5.40
2017-12-26T17:45:54.217Z,4.20
2017-12-26T17:48:22.853Z,3.93
2017-12-26T17:50:52.155Z,0.90
2017-12-26T17:53:21.338Z,2.40
2017-12-26T17:55:49.729Z,1.50
2017-12-26T17:58:18.112Z,1.00
2017-12-26T18:00:47.361Z,1.70
2017-12-26T18:03:15.810Z,2.53
2017-12-26T18:05:44.745Z,4.40
2017-12-26T18:08:13.269Z,1.47
2017-12-26T18:10:42.412Z,3.30
2017-12-26T18:13:11.640Z,2.07
2017-12-26T18:15:40.192Z,1.77
2017-12-26T18:18:09.420Z,3.57
2017-12-26T18:20:37.871Z,2.50
2017-12-26T18:23:06.319Z,3.47
2017-12-26T18:25:34.732Z,2.13
2017-12-26T18:28:03.149Z,3.80
2017-12-26T18:30:31.735Z,3.13
2017-12-26T18:33:00.396Z,5.50
2017-12-26T18:35:28.784Z,3.17
2017-12-26T18:37:57.778Z,8.83
2017-12-26T18:40:26.162Z,2.97
2017-12-26T18:42:54.538Z,4.63
2017-12-26T18:45:23.084Z,2.70
2017-12-26T18:47:51.462Z,1.30
2017-12-26T18:50:19.906Z,1.83
2017-12-26T18:52:49.267Z,5.60
2017-12-26T18:55:17.674Z,2.77
2017-12-26T18:57:46.070Z,1.70
2017-12-26T19:00:15.367Z,3.27
2017-12-26T19:02:44.582Z,2.00
2017-12-26T19:05:12.965Z,8.03
2017-12-26T19:07:41.564Z,1.97
2017-12-26T19:10:09.952Z,2.53
2017-12-26T19:12:38.323Z,3.70
2017-12-26T19:15:06.750Z,2.73
2017-12-26T19:17:35.114Z,4.40
2017-12-26T19:20:03.530Z,4.13
2017-12-26T19:22:32.153Z,3.50
2017-12-26T19:25:00.551Z,1.20
2017-12-26T19:27:29.212Z,0.80
2017-12-26T19:29:57.699Z,2.47
2017-12-26T19:32:26.122Z,3.23
2017-12-26T19:34:55.264Z,2.97
2017-12-26T19:37:23.689Z,2.07
2017-12-26T19:39:52.075Z,1.63
2017-12-26T19:42:20.481Z,10.73
2017-12-26T19:44:49.026Z,2.33
2017-12-26T19:47:17.432Z,1.70
2017-12-26T19:49:46.646Z,3.13
2017-12-26T19:52:15.192Z,7.00
2017-12-26T19:54:44.481Z,3.17
2017-12-26T19:57:12.864Z,0.50
2017-12-26T19:59:41.459Z,1.90
2017-12-26T20:02:10.618Z,5.27
2017-12-26T20:04:39.053Z,2.00
2017-12-26T20:07:08.575Z,23.43
2017-12-26T20:09:37.019Z,2.73
2017-12-26T20:12:06.188Z,2.50
2017-12-26T20:14:35.021Z,0.97
2017-12-26T20:17:03.704Z,1.20
2017-12-26T20:19:32.101Z,1.27
2017-12-26T20:22:00.521Z,1.37
2017-12-26T20:24:28.896Z,1.47
2017-12-26T20:26:57.311Z,1.40
2017-12-26T20:29:26.607Z,1.80
2017-12-26T20:31:55.009Z,14.30
2017-12-26T20:34:23.403Z,7.40
2017-12-26T20:36:51.929Z,6.13
2017-12-26T20:39:20.320Z,4.50
2017-12-26T20:41:49.526Z,2.50
2017-12-26T20:44:18.075Z,1.70
2017-12-26T20:46:46.450Z,7.10
2017-12-26T20:49:14.815Z,7.03
2017-12-26T20:51:43.224Z,4.60
2017-12-26T20:54:12.717Z,3.20
2017-12-26T20:56:41.425Z,7.10
2017-12-26T20:59:10.072Z,2.60
2017-12-26T21:01:38.589Z,3.23
2017-12-26T21:04:06.984Z,8.80
2017-12-26T21:06:36.462Z,6.90
2017-12-26T21:09:05.037Z,3.07
2017-12-26T21:11:33.444Z,0.97
2017-12-26T21:14:02.576Z,4.03
2017-12-26T21:16:31.327Z,5.13
2017-12-26T21:18:59.708Z,3.13
2017-12-26T21:21:28.278Z,8.80
2017-12-26T21:23:57.458Z,1.00
2017-12-26T21:26:25.854Z,2.13
2017-12-26T21:28:54.297Z,2.80
2017-12-26T21:31:22.757Z,8.37
2017-12-26T21:33:51.198Z,5.17
2017-12-26T21:36:19.749Z,4.00
2017-12-26T21:38:48.131Z,3.90
2017-12-26T21:41:17.235Z,3.70
2017-12-26T21:43:45.788Z,1.63
2017-12-26T21:46:14.250Z,11.90
2017-12-26T21:48:43.469Z,8.30
2017-12-26T21:51:12.070Z,6.77
2017-12-26T21:53:40.472Z,4.53
2017-12-26T21:56:09.223Z,2.60
2017-12-26T21:58:38.095Z,2.50
2017-12-26T22:01:06.517Z,3.63
2017-12-26T22:03:34.912Z,2.70
2017-12-26T22:06:03.377Z,5.67
2017-12-26T22:08:31.842Z,9.70
2017-12-26T22:11:00.208Z,7.83
2017-12-26T22:13:28.766Z,3.93
2017-12-26T22:15:57.913Z,1.43
2017-12-26T22:18:27.116Z,2.07
2017-12-26T22:20:55.741Z,1.43
2017-12-26T22:23:24.883Z,4.70
2017-12-26T22:25:53.260Z,2.43
2017-12-26T22:28:21.696Z,18.33
2017-12-26T22:30:50.839Z,2.93
2017-12-26T22:33:19.233Z,1.20
2017-12-26T22:35:47.638Z,7.80
2017-12-26T22:38:16.045Z,3.20
2017-12-26T22:40:44.425Z,6.70
2017-12-26T22:43:12.997Z,4.17
2017-12-26T22:45:42.310Z,2.60
2017-12-26T22:48:10.676Z,1.80
2017-12-26T22:50:40.188Z,6.67
2017-12-26T22:53:08.612Z,5.67
2017-12-26T22:55:37.929Z,2.57
2017-12-26T22:58:06.501Z,2.73
2017-12-26T23:00:35.363Z,2.60
2017-12-26T23:03:03.752Z,10.03
2017-12-26T23:05:33.153Z,5.90
2017-12-26T23:08:01.588Z,4.07
2017-12-26T23:10:30.842Z,4.00
2017-12-26T23:12:59.543Z,3.60
2017-12-26T23:15:33.506Z,5.70
2017-12-26T23:18:08.576Z,5.70
2017-12-26T23:20:43.988Z,3.00
2017-12-26T23:23:19.337Z,4.43
2017-12-26T23:25:53.399Z,4.30
2017-12-26T23:28:27.545Z,2.87
2017-12-26T23:31:02.301Z,5.50
2017-12-26T23:33:36.504Z,4.27
2017-12-26T23:36:11.142Z,4.40
2017-12-26T23:38:45.600Z,4.70
2017-12-26T23:41:21.243Z,5.00
2017-12-26T23:43:55.470Z,5.73
2017-12-26T23:46:29.465Z,2.30
2017-12-26T23:49:03.647Z,5.37
2017-12-26T23:51:37.915Z,4.77
2017-12-26T23:54:12.326Z,2.00
2017-12-26T23:56:46.281Z,2.50
2017-12-26T23:59:20.393Z,3.73
